sensor_id;sensor_type;location;lat;lon;timestamp;temperature;humidity
3954;DHT22;1991;48.682;9.030;2022-07-06T00:01:20;17.70;74.60
3954;DHT22;1991;48.682;9.030;2022-07-06T00:03:46;17.60;74.90
3954;DHT22;1991;48.682;9.030;2022-07-06T00:06:12;17.70;74.60
3954;DHT22;1991;48.682;9.030;2022-07-06T00:08:38;17.60;74.80
3954;DHT22;1991;48.682;9.030;2022-07-06T00:11:05;17.60;74.40
3954;DHT22;1991;48.682;9.030;2022-07-06T00:13:30;17.60;75.70
3954;DHT22;1991;48.682;9.030;2022-07-06T00:15:56;17.60;75.20
3954;DHT22;1991;48.682;9.030;2022-07-06T00:18:22;17.60;75.60
3954;DHT22;1991;48.682;9.030;2022-07-06T00:20:47;17.50;75.00
3954;DHT22;1991;48.682;9.030;2022-07-06T00:23:13;17.50;75.50
3954;DHT22;1991;48.682;9.030;2022-07-06T00:25:38;17.50;75.90
3954;DHT22;1991;48.682;9.030;2022-07-06T00:28:04;17.50;76.00
3954;DHT22;1991;48.682;9.030;2022-07-06T00:30:30;17.40;75.80
3954;DHT22;1991;48.682;9.030;2022-07-06T00:32:56;17.40;75.90
3954;DHT22;1991;48.682;9.030;2022-07-06T00:35:24;17.40;76.50
3954;DHT22;1991;48.682;9.030;2022-07-06T00:37:49;17.40;76.40
3954;DHT22;1991;48.682;9.030;2022-07-06T00:40:15;17.40;77.10
3954;DHT22;1991;48.682;9.030;2022-07-06T00:42:42;17.40;76.90
3954;DHT22;1991;48.682;9.030;2022-07-06T00:45:09;17.30;76.90
3954;DHT22;1991;48.682;9.030;2022-07-06T00:47:35;17.30;77.00
3954;DHT22;1991;48.682;9.030;2022-07-06T00:50:02;17.30;76.70
3954;DHT22;1991;48.682;9.030;2022-07-06T00:52:41;17.20;76.30
3954;DHT22;1991;48.682;9.030;2022-07-06T00:55:11;17.20;77.20
3954;DHT22;1991;48.682;9.030;2022-07-06T00:57:38;17.20;76.80
3954;DHT22;1991;48.682;9.030;2022-07-06T01:00:05;17.20;76.60
3954;DHT22;1991;48.682;9.030;2022-07-06T01:02:33;17.10;76.70
3954;DHT22;1991;48.682;9.030;2022-07-06T01:04:59;17.10;76.30
3954;DHT22;1991;48.682;9.030;2022-07-06T01:07:25;17.10;76.40
3954;DHT22;1991;48.682;9.030;2022-07-06T01:09:50;17.10;76.40
3954;DHT22;1991;48.682;9.030;2022-07-06T01:12:17;17.00;77.00
3954;DHT22;1991;48.682;9.030;2022-07-06T01:14:43;17.00;76.30
3954;DHT22;1991;48.682;9.030;2022-07-06T01:17:10;17.00;76.80
3954;DHT22;1991;48.682;9.030;2022-07-06T01:19:36;17.00;76.60
3954;DHT22;1991;48.682;9.030;2022-07-06T01:22:02;16.90;77.00
3954;DHT22;1991;48.682;9.030;2022-07-06T01:24:28;16.90;76.80
3954;DHT22;1991;48.682;9.030;2022-07-06T01:26:53;16.90;76.70
3954;DHT22;1991;48.682;9.030;2022-07-06T01:29:19;16.80;76.70
3954;DHT22;1991;48.682;9.030;2022-07-06T01:31:49;16.90;76.90
3954;DHT22;1991;48.682;9.030;2022-07-06T01:34:18;16.80;77.20
3954;DHT22;1991;48.682;9.030;2022-07-06T01:36:44;16.80;76.80
3954;DHT22;1991;48.682;9.030;2022-07-06T01:39:10;16.80;77.20
3954;DHT22;1991;48.682;9.030;2022-07-06T01:41:36;16.80;76.70
3954;DHT22;1991;48.682;9.030;2022-07-06T01:44:02;16.80;77.10
3954;DHT22;1991;48.682;9.030;2022-07-06T01:46:28;16.70;77.20
3954;DHT22;1991;48.682;9.030;2022-07-06T01:48:54;16.70;77.50
3954;DHT22;1991;48.682;9.030;2022-07-06T01:51:20;16.70;77.10
3954;DHT22;1991;48.682;9.030;2022-07-06T01:53:46;16.70;77.00
3954;DHT22;1991;48.682;9.030;2022-07-06T01:56:12;16.70;76.40
3954;DHT22;1991;48.682;9.030;2022-07-06T01:58:38;16.70;76.80
3954;DHT22;1991;48.682;9.030;2022-07-06T02:01:08;16.60;76.30
3954;DHT22;1991;48.682;9.030;2022-07-06T02:03:34;16.60;77.30
3954;DHT22;1991;48.682;9.030;2022-07-06T02:06:00;16.60;77.30
3954;DHT22;1991;48.682;9.030;2022-07-06T02:08:26;16.60;76.90
3954;DHT22;1991;48.682;9.030;2022-07-06T02:10:51;16.60;76.80
3954;DHT22;1991;48.682;9.030;2022-07-06T02:13:17;16.50;77.10
3954;DHT22;1991;48.682;9.030;2022-07-06T02:15:42;16.60;77.20
3954;DHT22;1991;48.682;9.030;2022-07-06T02:18:08;16.50;77.90
3954;DHT22;1991;48.682;9.030;2022-07-06T02:20:34;16.50;77.50
3954;DHT22;1991;48.682;9.030;2022-07-06T02:22:59;16.50;77.90
3954;DHT22;1991;48.682;9.030;2022-07-06T02:25:25;16.50;78.00
3954;DHT22;1991;48.682;9.030;2022-07-06T02:27:50;16.50;78.10
3954;DHT22;1991;48.682;9.030;2022-07-06T02:30:16;16.40;77.80
3954;DHT22;1991;48.682;9.030;2022-07-06T02:32:42;16.40;78.50
3954;DHT22;1991;48.682;9.030;2022-07-06T02:35:08;16.40;78.50
3954;DHT22;1991;48.682;9.030;2022-07-06T02:37:34;16.40;78.60
3954;DHT22;1991;48.682;9.030;2022-07-06T02:39:59;16.40;79.00
3954;DHT22;1991;48.682;9.030;2022-07-06T02:42:25;16.30;78.30
3954;DHT22;1991;48.682;9.030;2022-07-06T02:44:53;16.30;79.20
3954;DHT22;1991;48.682;9.030;2022-07-06T02:47:18;16.30;79.20
3954;DHT22;1991;48.682;9.030;2022-07-06T02:49:44;16.30;79.40
3954;DHT22;1991;48.682;9.030;2022-07-06T02:52:10;16.30;79.70
3954;DHT22;1991;48.682;9.030;2022-07-06T02:54:35;16.20;79.50
3954;DHT22;1991;48.682;9.030;2022-07-06T02:57:01;16.20;79.90
3954;DHT22;1991;48.682;9.030;2022-07-06T02:59:27;16.20;80.60
3954;DHT22;1991;48.682;9.030;2022-07-06T03:01:52;16.20;80.80
3954;DHT22;1991;48.682;9.030;2022-07-06T03:04:18;16.10;80.70
3954;DHT22;1991;48.682;9.030;2022-07-06T03:06:43;16.10;81.00
3954;DHT22;1991;48.682;9.030;2022-07-06T03:09:09;16.20;81.30
3954;DHT22;1991;48.682;9.030;2022-07-06T03:11:34;16.10;81.60
3954;DHT22;1991;48.682;9.030;2022-07-06T03:14:03;16.10;81.80
3954;DHT22;1991;48.682;9.030;2022-07-06T03:16:29;16.10;82.10
3954;DHT22;1991;48.682;9.030;2022-07-06T03:18:54;16.10;83.20
3954;DHT22;1991;48.682;9.030;2022-07-06T03:21:20;16.10;82.70
3954;DHT22;1991;48.682;9.030;2022-07-06T03:23:45;16.00;83.20
3954;DHT22;1991;48.682;9.030;2022-07-06T03:26:11;16.00;83.30
3954;DHT22;1991;48.682;9.030;2022-07-06T03:28:37;16.00;83.60
3954;DHT22;1991;48.682;9.030;2022-07-06T03:31:02;16.00;83.80
3954;DHT22;1991;48.682;9.030;2022-07-06T03:33:28;16.00;84.00
3954;DHT22;1991;48.682;9.030;2022-07-06T03:35:53;16.00;84.50
3954;DHT22;1991;48.682;9.030;2022-07-06T03:38:19;16.00;84.70
3954;DHT22;1991;48.682;9.030;2022-07-06T03:40:44;15.90;85.00
3954;DHT22;1991;48.682;9.030;2022-07-06T03:43:10;15.90;84.70
3954;DHT22;1991;48.682;9.030;2022-07-06T03:45:36;15.90;85.60
3954;DHT22;1991;48.682;9.030;2022-07-06T03:48:02;15.80;85.50
3954;DHT22;1991;48.682;9.030;2022-07-06T03:50:27;15.80;86.00
3954;DHT22;1991;48.682;9.030;2022-07-06T03:52:53;15.80;86.50
3954;DHT22;1991;48.682;9.030;2022-07-06T03:55:18;15.80;86.90
3954;DHT22;1991;48.682;9.030;2022-07-06T03:57:44;15.80;87.20
3954;DHT22;1991;48.682;9.030;2022-07-06T04:00:10;15.80;87.20
3954;DHT22;1991;48.682;9.030;2022-07-06T04:02:36;15.80;87.90
3954;DHT22;1991;48.682;9.030;2022-07-06T04:05:02;15.80;88.10
3954;DHT22;1991;48.682;9.030;2022-07-06T04:07:27;15.80;88.60
3954;DHT22;1991;48.682;9.030;2022-07-06T04:09:53;15.80;88.90
3954;DHT22;1991;48.682;9.030;2022-07-06T04:12:18;15.80;89.10
3954;DHT22;1991;48.682;9.030;2022-07-06T04:14:44;15.80;89.30
3954;DHT22;1991;48.682;9.030;2022-07-06T04:17:09;15.90;89.30
3954;DHT22;1991;48.682;9.030;2022-07-06T04:19:54;15.80;89.80
3954;DHT22;1991;48.682;9.030;2022-07-06T04:22:20;15.80;89.80
3954;DHT22;1991;48.682;9.030;2022-07-06T04:24:45;15.80;90.00
3954;DHT22;1991;48.682;9.030;2022-07-06T04:27:11;15.90;90.20
3954;DHT22;1991;48.682;9.030;2022-07-06T04:29:37;16.00;90.20
3954;DHT22;1991;48.682;9.030;2022-07-06T04:32:02;16.00;90.40
3954;DHT22;1991;48.682;9.030;2022-07-06T04:34:28;16.00;90.20
3954;DHT22;1991;48.682;9.030;2022-07-06T04:36:54;16.00;90.40
3954;DHT22;1991;48.682;9.030;2022-07-06T04:39:19;16.10;90.50
3954;DHT22;1991;48.682;9.030;2022-07-06T04:41:45;16.10;90.30
3954;DHT22;1991;48.682;9.030;2022-07-06T04:44:10;16.20;90.20
3954;DHT22;1991;48.682;9.030;2022-07-06T04:46:36;16.20;90.50
3954;DHT22;1991;48.682;9.030;2022-07-06T04:49:02;16.30;90.50
3954;DHT22;1991;48.682;9.030;2022-07-06T04:51:27;16.30;90.70
3954;DHT22;1991;48.682;9.030;2022-07-06T04:53:53;16.30;90.50
3954;DHT22;1991;48.682;9.030;2022-07-06T04:56:18;16.40;90.50
3954;DHT22;1991;48.682;9.030;2022-07-06T04:58:44;16.30;90.30
3954;DHT22;1991;48.682;9.030;2022-07-06T05:01:09;16.40;90.60
3954;DHT22;1991;48.682;9.030;2022-07-06T05:03:35;16.40;90.50
3954;DHT22;1991;48.682;9.030;2022-07-06T05:06:05;16.40;90.70
3954;DHT22;1991;48.682;9.030;2022-07-06T05:08:31;16.40;90.60
3954;DHT22;1991;48.682;9.030;2022-07-06T05:10:56;16.50;90.70
3954;DHT22;1991;48.682;9.030;2022-07-06T05:13:22;16.60;90.60
3954;DHT22;1991;48.682;9.030;2022-07-06T05:15:48;16.60;90.50
3954;DHT22;1991;48.682;9.030;2022-07-06T05:18:13;16.60;90.70
3954;DHT22;1991;48.682;9.030;2022-07-06T05:20:39;16.70;90.60
3954;DHT22;1991;48.682;9.030;2022-07-06T05:23:05;16.70;90.60
3954;DHT22;1991;48.682;9.030;2022-07-06T05:25:30;16.80;90.50
3954;DHT22;1991;48.682;9.030;2022-07-06T05:27:56;16.80;90.50
3954;DHT22;1991;48.682;9.030;2022-07-06T05:30:22;16.90;90.70
3954;DHT22;1991;48.682;9.030;2022-07-06T05:32:48;17.00;90.50
3954;DHT22;1991;48.682;9.030;2022-07-06T05:35:13;17.10;90.60
3954;DHT22;1991;48.682;9.030;2022-07-06T05:37:39;17.10;90.00
3954;DHT22;1991;48.682;9.030;2022-07-06T05:40:05;17.20;89.70
3954;DHT22;1991;48.682;9.030;2022-07-06T05:42:30;17.20;90.00
3954;DHT22;1991;48.682;9.030;2022-07-06T05:44:56;17.30;89.30
3954;DHT22;1991;48.682;9.030;2022-07-06T05:47:22;17.30;89.30
3954;DHT22;1991;48.682;9.030;2022-07-06T05:50:07;17.40;89.50
3954;DHT22;1991;48.682;9.030;2022-07-06T05:52:40;17.50;89.40
3954;DHT22;1991;48.682;9.030;2022-07-06T05:55:06;17.60;88.60
3954;DHT22;1991;48.682;9.030;2022-07-06T05:57:32;17.60;88.20
3954;DHT22;1991;48.682;9.030;2022-07-06T05:59:57;17.70;87.10
3954;DHT22;1991;48.682;9.030;2022-07-06T06:02:23;17.80;87.00
3954;DHT22;1991;48.682;9.030;2022-07-06T06:04:48;17.80;87.30
3954;DHT22;1991;48.682;9.030;2022-07-06T06:07:14;18.00;87.10
3954;DHT22;1991;48.682;9.030;2022-07-06T06:09:40;18.00;86.50
3954;DHT22;1991;48.682;9.030;2022-07-06T06:12:06;18.20;85.70
3954;DHT22;1991;48.682;9.030;2022-07-06T06:14:31;18.30;85.70
3954;DHT22;1991;48.682;9.030;2022-07-06T06:16:57;18.40;85.40
3954;DHT22;1991;48.682;9.030;2022-07-06T06:19:24;18.50;84.90
3954;DHT22;1991;48.682;9.030;2022-07-06T06:21:49;18.60;84.80
3954;DHT22;1991;48.682;9.030;2022-07-06T06:24:17;18.80;85.20
3954;DHT22;1991;48.682;9.030;2022-07-06T06:26:42;19.00;83.70
3954;DHT22;1991;48.682;9.030;2022-07-06T06:29:08;19.20;82.70
3954;DHT22;1991;48.682;9.030;2022-07-06T06:31:34;19.50;82.90
3954;DHT22;1991;48.682;9.030;2022-07-06T06:34:00;19.60;81.40
3954;DHT22;1991;48.682;9.030;2022-07-06T06:36:25;19.80;79.80
3954;DHT22;1991;48.682;9.030;2022-07-06T06:38:51;19.80;78.40
3954;DHT22;1991;48.682;9.030;2022-07-06T06:41:17;20.10;78.60
3954;DHT22;1991;48.682;9.030;2022-07-06T06:43:43;20.20;78.60
3954;DHT22;1991;48.682;9.030;2022-07-06T06:46:11;20.40;78.00
3954;DHT22;1991;48.682;9.030;2022-07-06T06:48:37;20.60;76.60
3954;DHT22;1991;48.682;9.030;2022-07-06T06:51:04;20.80;76.30
3954;DHT22;1991;48.682;9.030;2022-07-06T06:53:29;20.80;74.60
3954;DHT22;1991;48.682;9.030;2022-07-06T06:55:55;21.00;75.20
3954;DHT22;1991;48.682;9.030;2022-07-06T06:58:21;21.00;74.50
3954;DHT22;1991;48.682;9.030;2022-07-06T07:00:46;20.80;75.40
3954;DHT22;1991;48.682;9.030;2022-07-06T07:03:13;20.50;74.00
3954;DHT22;1991;48.682;9.030;2022-07-06T07:05:38;20.20;73.80
3954;DHT22;1991;48.682;9.030;2022-07-06T07:08:04;20.20;74.40
3954;DHT22;1991;48.682;9.030;2022-07-06T07:10:30;20.20;74.60
3954;DHT22;1991;48.682;9.030;2022-07-06T07:12:56;20.40;75.80
3954;DHT22;1991;48.682;9.030;2022-07-06T07:15:22;20.70;73.60
3954;DHT22;1991;48.682;9.030;2022-07-06T07:17:48;21.00;73.10
3954;DHT22;1991;48.682;9.030;2022-07-06T07:20:14;21.00;73.10
3954;DHT22;1991;48.682;9.030;2022-07-06T07:22:39;21.00;72.60
3954;DHT22;1991;48.682;9.030;2022-07-06T07:25:06;21.30;71.50
3954;DHT22;1991;48.682;9.030;2022-07-06T07:27:32;21.70;71.30
3954;DHT22;1991;48.682;9.030;2022-07-06T07:29:57;21.90;69.60
3954;DHT22;1991;48.682;9.030;2022-07-06T07:32:23;22.10;69.30
3954;DHT22;1991;48.682;9.030;2022-07-06T07:34:48;22.40;68.80
3954;DHT22;1991;48.682;9.030;2022-07-06T07:37:14;22.50;65.90
3954;DHT22;1991;48.682;9.030;2022-07-06T07:39:39;22.80;67.20
3954;DHT22;1991;48.682;9.030;2022-07-06T07:42:05;23.10;65.50
3954;DHT22;1991;48.682;9.030;2022-07-06T07:44:31;23.30;65.80
3954;DHT22;1991;48.682;9.030;2022-07-06T07:46:56;23.60;65.70
3954;DHT22;1991;48.682;9.030;2022-07-06T07:49:22;23.60;64.50
3954;DHT22;1991;48.682;9.030;2022-07-06T07:51:48;23.80;63.50
3954;DHT22;1991;48.682;9.030;2022-07-06T07:54:14;23.90;64.10
3954;DHT22;1991;48.682;9.030;2022-07-06T07:56:40;24.20;63.70
3954;DHT22;1991;48.682;9.030;2022-07-06T07:59:07;24.30;62.30
3954;DHT22;1991;48.682;9.030;2022-07-06T08:01:33;24.50;60.80
3954;DHT22;1991;48.682;9.030;2022-07-06T08:03:59;24.40;59.60
3954;DHT22;1991;48.682;9.030;2022-07-06T08:06:25;24.30;60.20
3954;DHT22;1991;48.682;9.030;2022-07-06T08:08:50;24.60;61.30
3954;DHT22;1991;48.682;9.030;2022-07-06T08:11:16;25.00;60.20
3954;DHT22;1991;48.682;9.030;2022-07-06T08:13:42;25.20;60.30
3954;DHT22;1991;48.682;9.030;2022-07-06T08:16:08;25.40;58.30
3954;DHT22;1991;48.682;9.030;2022-07-06T08:18:35;25.20;56.40
3954;DHT22;1991;48.682;9.030;2022-07-06T08:21:01;25.30;58.40
3954;DHT22;1991;48.682;9.030;2022-07-06T08:23:26;25.60;57.20
3954;DHT22;1991;48.682;9.030;2022-07-06T08:25:52;25.80;57.00
3954;DHT22;1991;48.682;9.030;2022-07-06T08:28:18;25.90;56.10
3954;DHT22;1991;48.682;9.030;2022-07-06T08:30:44;25.70;56.10
3954;DHT22;1991;48.682;9.030;2022-07-06T08:33:09;25.70;56.50
3954;DHT22;1991;48.682;9.030;2022-07-06T08:35:35;25.60;55.70
3954;DHT22;1991;48.682;9.030;2022-07-06T08:38:00;25.90;56.50
3954;DHT22;1991;48.682;9.030;2022-07-06T08:40:31;26.40;56.20
3954;DHT22;1991;48.682;9.030;2022-07-06T08:42:59;26.50;54.70
3954;DHT22;1991;48.682;9.030;2022-07-06T08:45:25;26.60;53.40
3954;DHT22;1991;48.682;9.030;2022-07-06T08:47:53;26.70;53.30
3954;DHT22;1991;48.682;9.030;2022-07-06T08:50:19;26.90;53.70
3954;DHT22;1991;48.682;9.030;2022-07-06T08:52:47;27.20;53.00
3954;DHT22;1991;48.682;9.030;2022-07-06T08:55:14;27.20;49.60
3954;DHT22;1991;48.682;9.030;2022-07-06T08:57:39;27.40;51.30
3954;DHT22;1991;48.682;9.030;2022-07-06T09:00:09;27.40;52.40
3954;DHT22;1991;48.682;9.030;2022-07-06T09:02:36;27.40;50.90
3954;DHT22;1991;48.682;9.030;2022-07-06T09:05:03;27.30;51.80
3954;DHT22;1991;48.682;9.030;2022-07-06T09:07:29;27.70;49.60
3954;DHT22;1991;48.682;9.030;2022-07-06T09:09:55;27.90;48.90
3954;DHT22;1991;48.682;9.030;2022-07-06T09:12:21;27.60;49.50
3954;DHT22;1991;48.682;9.030;2022-07-06T09:14:47;27.90;51.00
3954;DHT22;1991;48.682;9.030;2022-07-06T09:17:13;28.10;49.80
3954;DHT22;1991;48.682;9.030;2022-07-06T09:19:39;28.10;49.60
3954;DHT22;1991;48.682;9.030;2022-07-06T09:22:05;28.20;49.60
3954;DHT22;1991;48.682;9.030;2022-07-06T09:24:31;28.50;47.50
3954;DHT22;1991;48.682;9.030;2022-07-06T09:26:57;28.00;47.90
3954;DHT22;1991;48.682;9.030;2022-07-06T09:29:30;27.90;49.00
3954;DHT22;1991;48.682;9.030;2022-07-06T09:32:01;28.30;50.60
3954;DHT22;1991;48.682;9.030;2022-07-06T09:34:46;28.60;49.20
3954;DHT22;1991;48.682;9.030;2022-07-06T09:37:13;28.60;47.80
3954;DHT22;1991;48.682;9.030;2022-07-06T09:39:39;28.60;49.00
3954;DHT22;1991;48.682;9.030;2022-07-06T09:42:06;28.50;49.10
3954;DHT22;1991;48.682;9.030;2022-07-06T09:44:37;28.40;47.80
3954;DHT22;1991;48.682;9.030;2022-07-06T09:47:08;28.30;48.80
3954;DHT22;1991;48.682;9.030;2022-07-06T09:49:35;28.50;49.20
3954;DHT22;1991;48.682;9.030;2022-07-06T09:52:03;28.70;48.10
3954;DHT22;1991;48.682;9.030;2022-07-06T09:54:29;29.20;49.00
3954;DHT22;1991;48.682;9.030;2022-07-06T09:56:56;29.50;48.30
3954;DHT22;1991;48.682;9.030;2022-07-06T09:59:24;29.60;48.80
3954;DHT22;1991;48.682;9.030;2022-07-06T10:01:52;29.50;47.20
3954;DHT22;1991;48.682;9.030;2022-07-06T10:04:18;29.80;47.20
3954;DHT22;1991;48.682;9.030;2022-07-06T10:06:45;29.80;46.50
3954;DHT22;1991;48.682;9.030;2022-07-06T10:09:14;29.90;45.30
3954;DHT22;1991;48.682;9.030;2022-07-06T10:11:53;29.80;46.40
3954;DHT22;1991;48.682;9.030;2022-07-06T10:14:30;29.90;46.30
3954;DHT22;1991;48.682;9.030;2022-07-06T10:16:57;29.70;47.60
3954;DHT22;1991;48.682;9.030;2022-07-06T10:19:23;29.50;46.90
3954;DHT22;1991;48.682;9.030;2022-07-06T10:21:50;28.90;48.20
3954;DHT22;1991;48.682;9.030;2022-07-06T10:24:18;28.40;48.00
3954;DHT22;1991;48.682;9.030;2022-07-06T10:26:45;28.00;49.30
3954;DHT22;1991;48.682;9.030;2022-07-06T10:29:11;28.40;49.20
3954;DHT22;1991;48.682;9.030;2022-07-06T10:31:45;29.20;47.90
3954;DHT22;1991;48.682;9.030;2022-07-06T10:34:13;29.50;48.10
3954;DHT22;1991;48.682;9.030;2022-07-06T10:36:41;29.60;47.30
3954;DHT22;1991;48.682;9.030;2022-07-06T10:39:08;29.40;47.00
3954;DHT22;1991;48.682;9.030;2022-07-06T10:41:52;29.70;47.70
3954;DHT22;1991;48.682;9.030;2022-07-06T10:44:23;29.00;47.10
3954;DHT22;1991;48.682;9.030;2022-07-06T10:46:54;28.50;47.80
3954;DHT22;1991;48.682;9.030;2022-07-06T10:49:21;28.20;48.70
3954;DHT22;1991;48.682;9.030;2022-07-06T10:51:47;27.90;49.20
3954;DHT22;1991;48.682;9.030;2022-07-06T10:54:15;27.40;49.90
3954;DHT22;1991;48.682;9.030;2022-07-06T10:56:49;27.40;51.50
3954;DHT22;1991;48.682;9.030;2022-07-06T10:59:20;27.60;51.20
3954;DHT22;1991;48.682;9.030;2022-07-06T11:02:15;27.50;50.50
3954;DHT22;1991;48.682;9.030;2022-07-06T11:04:45;27.00;50.80
3954;DHT22;1991;48.682;9.030;2022-07-06T11:07:14;26.90;51.30
3954;DHT22;1991;48.682;9.030;2022-07-06T11:09:40;26.90;52.50
3954;DHT22;1991;48.682;9.030;2022-07-06T11:12:16;26.80;52.50
3954;DHT22;1991;48.682;9.030;2022-07-06T11:14:44;26.70;51.70
3954;DHT22;1991;48.682;9.030;2022-07-06T11:17:10;26.60;51.50
3954;DHT22;1991;48.682;9.030;2022-07-06T11:19:36;26.40;52.00
3954;DHT22;1991;48.682;9.030;2022-07-06T11:22:09;26.40;52.80
3954;DHT22;1991;48.682;9.030;2022-07-06T11:24:40;26.30;52.70
3954;DHT22;1991;48.682;9.030;2022-07-06T11:27:06;26.30;53.10
3954;DHT22;1991;48.682;9.030;2022-07-06T11:29:33;26.40;52.70
3954;DHT22;1991;48.682;9.030;2022-07-06T11:32:06;26.70;51.90
3954;DHT22;1991;48.682;9.030;2022-07-06T11:34:39;27.50;52.90
3954;DHT22;1991;48.682;9.030;2022-07-06T11:37:13;27.60;51.00
3954;DHT22;1991;48.682;9.030;2022-07-06T11:39:43;27.50;51.40
3954;DHT22;1991;48.682;9.030;2022-07-06T11:42:10;27.30;50.60
3954;DHT22;1991;48.682;9.030;2022-07-06T11:44:36;27.20;51.60
3954;DHT22;1991;48.682;9.030;2022-07-06T11:47:03;27.10;51.80
3954;DHT22;1991;48.682;9.030;2022-07-06T11:49:31;26.90;51.50
3954;DHT22;1991;48.682;9.030;2022-07-06T11:51:57;26.50;52.10
3954;DHT22;1991;48.682;9.030;2022-07-06T11:54:24;26.20;53.30
3954;DHT22;1991;48.682;9.030;2022-07-06T11:56:52;26.20;53.50
3954;DHT22;1991;48.682;9.030;2022-07-06T11:59:26;26.20;53.80
3954;DHT22;1991;48.682;9.030;2022-07-06T12:02:12;26.80;54.40
3954;DHT22;1991;48.682;9.030;2022-07-06T12:04:39;26.80;53.60
3954;DHT22;1991;48.682;9.030;2022-07-06T12:07:07;26.50;51.70
3954;DHT22;1991;48.682;9.030;2022-07-06T12:09:35;26.70;53.00
3954;DHT22;1991;48.682;9.030;2022-07-06T12:12:02;26.70;53.30
3954;DHT22;1991;48.682;9.030;2022-07-06T12:14:32;26.90;52.70
3954;DHT22;1991;48.682;9.030;2022-07-06T12:17:09;26.90;52.80
3954;DHT22;1991;48.682;9.030;2022-07-06T12:19:36;26.60;52.60
3954;DHT22;1991;48.682;9.030;2022-07-06T12:22:02;26.60;53.60
3954;DHT22;1991;48.682;9.030;2022-07-06T12:24:29;27.10;52.70
3954;DHT22;1991;48.682;9.030;2022-07-06T12:26:58;27.80;52.70
3954;DHT22;1991;48.682;9.030;2022-07-06T12:29:34;27.80;50.50
3954;DHT22;1991;48.682;9.030;2022-07-06T12:32:00;26.70;51.50
3954;DHT22;1991;48.682;9.030;2022-07-06T12:34:28;26.40;52.70
3954;DHT22;1991;48.682;9.030;2022-07-06T12:36:59;26.20;53.00
3954;DHT22;1991;48.682;9.030;2022-07-06T12:39:27;25.80;52.40
3954;DHT22;1991;48.682;9.030;2022-07-06T12:42:03;25.80;53.40
3954;DHT22;1991;48.682;9.030;2022-07-06T12:44:31;26.00;54.20
3954;DHT22;1991;48.682;9.030;2022-07-06T12:47:05;26.70;53.90
3954;DHT22;1991;48.682;9.030;2022-07-06T12:49:31;26.70;52.80
3954;DHT22;1991;48.682;9.030;2022-07-06T12:54:50;27.20;51.90
3954;DHT22;1991;48.682;9.030;2022-07-06T12:57:23;27.10;51.90
3954;DHT22;1991;48.682;9.030;2022-07-06T13:05:03;27.60;51.80
3954;DHT22;1991;48.682;9.030;2022-07-06T13:07:31;27.70;50.60
3954;DHT22;1991;48.682;9.030;2022-07-06T13:09:58;27.80;51.40
3954;DHT22;1991;48.682;9.030;2022-07-06T13:12:24;27.90;50.70
3954;DHT22;1991;48.682;9.030;2022-07-06T13:14:51;28.20;49.30
3954;DHT22;1991;48.682;9.030;2022-07-06T13:17:17;28.40;47.90
3954;DHT22;1991;48.682;9.030;2022-07-06T13:19:42;28.70;48.00
3954;DHT22;1991;48.682;9.030;2022-07-06T13:22:08;29.00;47.10
3954;DHT22;1991;48.682;9.030;2022-07-06T13:24:34;29.00;48.10
3954;DHT22;1991;48.682;9.030;2022-07-06T13:27:00;29.10;48.10
3954;DHT22;1991;48.682;9.030;2022-07-06T13:29:26;29.20;48.00
3954;DHT22;1991;48.682;9.030;2022-07-06T13:31:51;28.80;47.90
3954;DHT22;1991;48.682;9.030;2022-07-06T13:34:18;28.70;47.30
3954;DHT22;1991;48.682;9.030;2022-07-06T13:36:43;28.70;47.70
3954;DHT22;1991;48.682;9.030;2022-07-06T13:39:09;28.80;48.30
3954;DHT22;1991;48.682;9.030;2022-07-06T13:41:35;28.60;46.20
3954;DHT22;1991;48.682;9.030;2022-07-06T13:44:01;28.50;48.40
3954;DHT22;1991;48.682;9.030;2022-07-06T13:46:30;28.50;48.20
3954;DHT22;1991;48.682;9.030;2022-07-06T13:48:57;28.00;48.00
3954;DHT22;1991;48.682;9.030;2022-07-06T13:51:24;27.40;48.30
3954;DHT22;1991;48.682;9.030;2022-07-06T13:53:52;27.10;48.80
3954;DHT22;1991;48.682;9.030;2022-07-06T13:56:17;27.30;49.90
3954;DHT22;1991;48.682;9.030;2022-07-06T13:58:43;27.40;48.70
3954;DHT22;1991;48.682;9.030;2022-07-06T14:01:09;27.30;48.10
3954;DHT22;1991;48.682;9.030;2022-07-06T14:03:35;27.20;48.90
3954;DHT22;1991;48.682;9.030;2022-07-06T14:06:03;27.00;49.40
3954;DHT22;1991;48.682;9.030;2022-07-06T14:08:29;26.90;48.90
3954;DHT22;1991;48.682;9.030;2022-07-06T14:10:56;27.10;49.80
3954;DHT22;1991;48.682;9.030;2022-07-06T14:13:22;27.20;49.40
3954;DHT22;1991;48.682;9.030;2022-07-06T14:15:48;27.20;49.30
3954;DHT22;1991;48.682;9.030;2022-07-06T14:18:15;27.30;49.60
3954;DHT22;1991;48.682;9.030;2022-07-06T14:20:43;27.20;47.80
3954;DHT22;1991;48.682;9.030;2022-07-06T14:23:10;27.10;48.90
3954;DHT22;1991;48.682;9.030;2022-07-06T14:25:36;27.20;49.40
3954;DHT22;1991;48.682;9.030;2022-07-06T14:28:02;27.30;49.10
3954;DHT22;1991;48.682;9.030;2022-07-06T14:30:28;27.30;48.50
3954;DHT22;1991;48.682;9.030;2022-07-06T14:32:53;27.40;49.50
3954;DHT22;1991;48.682;9.030;2022-07-06T14:35:19;27.50;48.00
3954;DHT22;1991;48.682;9.030;2022-07-06T14:37:45;27.50;47.90
3954;DHT22;1991;48.682;9.030;2022-07-06T14:40:10;27.20;47.90
3954;DHT22;1991;48.682;9.030;2022-07-06T14:42:36;27.00;48.80
3954;DHT22;1991;48.682;9.030;2022-07-06T14:45:02;26.60;48.30
3954;DHT22;1991;48.682;9.030;2022-07-06T14:47:27;26.40;49.20
3954;DHT22;1991;48.682;9.030;2022-07-06T14:49:53;26.50;49.10
3954;DHT22;1991;48.682;9.030;2022-07-06T14:52:19;26.50;48.80
3954;DHT22;1991;48.682;9.030;2022-07-06T14:54:45;26.50;49.20
3954;DHT22;1991;48.682;9.030;2022-07-06T14:57:11;26.60;49.30
3954;DHT22;1991;48.682;9.030;2022-07-06T14:59:36;26.60;49.30
3954;DHT22;1991;48.682;9.030;2022-07-06T15:02:03;26.50;49.40
3954;DHT22;1991;48.682;9.030;2022-07-06T15:04:28;26.50;48.70
3954;DHT22;1991;48.682;9.030;2022-07-06T15:06:54;26.50;49.00
3954;DHT22;1991;48.682;9.030;2022-07-06T15:09:20;26.50;48.90
3954;DHT22;1991;48.682;9.030;2022-07-06T15:11:45;26.30;49.30
3954;DHT22;1991;48.682;9.030;2022-07-06T15:14:12;26.20;48.90
3954;DHT22;1991;48.682;9.030;2022-07-06T15:16:38;26.20;49.90
3954;DHT22;1991;48.682;9.030;2022-07-06T15:19:04;26.10;49.50
3954;DHT22;1991;48.682;9.030;2022-07-06T15:21:30;25.70;49.00
3954;DHT22;1991;48.682;9.030;2022-07-06T15:23:56;25.60;49.80
3954;DHT22;1991;48.682;9.030;2022-07-06T15:26:21;25.60;50.20
3954;DHT22;1991;48.682;9.030;2022-07-06T15:28:47;25.50;49.90
3954;DHT22;1991;48.682;9.030;2022-07-06T15:31:13;25.30;50.20
3954;DHT22;1991;48.682;9.030;2022-07-06T15:33:38;25.30;50.10
3954;DHT22;1991;48.682;9.030;2022-07-06T15:36:04;25.10;50.00
3954;DHT22;1991;48.682;9.030;2022-07-06T15:38:30;24.90;51.30
3954;DHT22;1991;48.682;9.030;2022-07-06T15:40:56;24.90;51.00
3954;DHT22;1991;48.682;9.030;2022-07-06T15:43:25;24.80;50.10
3954;DHT22;1991;48.682;9.030;2022-07-06T15:45:59;24.80;50.90
3954;DHT22;1991;48.682;9.030;2022-07-06T15:48:25;24.70;50.60
3954;DHT22;1991;48.682;9.030;2022-07-06T15:50:51;24.60;50.90
3954;DHT22;1991;48.682;9.030;2022-07-06T15:53:17;24.60;50.80
3954;DHT22;1991;48.682;9.030;2022-07-06T15:55:44;24.50;50.30
3954;DHT22;1991;48.682;9.030;2022-07-06T15:58:09;24.60;50.80
3954;DHT22;1991;48.682;9.030;2022-07-06T16:00:35;24.60;50.50
3954;DHT22;1991;48.682;9.030;2022-07-06T16:03:01;24.70;50.50
3954;DHT22;1991;48.682;9.030;2022-07-06T16:05:27;24.70;51.20
3954;DHT22;1991;48.682;9.030;2022-07-06T16:07:53;24.70;50.40